sensor_id;sensor_type;location;lat;lon;timestamp;P1;durP1;ratioP1;P2;durP2;ratioP2
20855;SDS011;63058;49.424;8.420;2024-02-28T00:00:44;15.40;;;12.20;;
20855;SDS011;63058;49.424;8.420;2024-02-28T00:03:10;17.00;;;12.55;;
20855;SDS011;63058;49.424;8.420;2024-02-28T00:05:36;16.67;;;12.00;;
20855;SDS011;63058;49.424;8.420;2024-02-28T00:08:01;16.63;;;12.00;;
20855;SDS011;63058;49.424;8.420;2024-02-28T00:10:27;16.15;;;12.38;;
20855;SDS011;63058;49.424;8.420;2024-02-28T00:12:52;18.40;;;12.70;;
20855;SDS011;63058;49.424;8.420;2024-02-28T00:15:18;17.93;;;12.80;;
20855;SDS011;63058;49.424;8.420;2024-02-28T00:17:43;17.30;;;13.40;;
20855;SDS011;63058;49.424;8.420;2024-02-28T00:20:09;17.27;;;12.70;;
20855;SDS011;63058;49.424;8.420;2024-02-28T00:22:35;17.47;;;12.93;;
20855;SDS011;63058;49.424;8.420;2024-02-28T00:25:02;15.17;;;12.13;;
20855;SDS011;63058;49.424;8.420;2024-02-28T00:27:28;16.27;;;12.43;;
20855;SDS011;63058;49.424;8.420;2024-02-28T00:29:54;18.00;;;13.87;;
20855;SDS011;63058;49.424;8.420;2024-02-28T00:32:19;18.30;;;14.10;;
20855;SDS011;63058;49.424;8.420;2024-02-28T00:34:46;18.55;;;13.82;;
20855;SDS011;63058;49.424;8.420;2024-02-28T00:37:11;20.13;;;13.77;;
20855;SDS011;63058;49.424;8.420;2024-02-28T00:39:37;16.80;;;12.63;;
20855;SDS011;63058;49.424;8.420;2024-02-28T00:42:02;15.93;;;12.57;;
20855;SDS011;63058;49.424;8.420;2024-02-28T00:44:28;16.73;;;12.57;;
20855;SDS011;63058;49.424;8.420;2024-02-28T00:46:53;18.73;;;13.33;;
20855;SDS011;63058;49.424;8.420;2024-02-28T00:49:19;17.23;;;13.60;;
20855;SDS011;63058;49.424;8.420;2024-02-28T00:51:45;18.77;;;14.20;;
20855;SDS011;63058;49.424;8.420;2024-02-28T00:54:11;20.63;;;14.27;;
20855;SDS011;63058;49.424;8.420;2024-02-28T00:56:37;21.67;;;15.33;;
20855;SDS011;63058;49.424;8.420;2024-02-28T00:59:02;21.17;;;15.37;;
20855;SDS011;63058;49.424;8.420;2024-02-28T01:01:28;21.53;;;15.60;;
20855;SDS011;63058;49.424;8.420;2024-02-28T01:03:53;20.73;;;15.90;;
20855;SDS011;63058;49.424;8.420;2024-02-28T01:06:19;19.70;;;15.40;;
20855;SDS011;63058;49.424;8.420;2024-02-28T01:08:45;23.30;;;17.90;;
20855;SDS011;63058;49.424;8.420;2024-02-28T01:11:10;24.40;;;17.77;;
20855;SDS011;63058;49.424;8.420;2024-02-28T01:13:36;21.57;;;15.87;;
20855;SDS011;63058;49.424;8.420;2024-02-28T01:16:01;26.13;;;18.37;;
20855;SDS011;63058;49.424;8.420;2024-02-28T01:18:27;22.97;;;17.23;;
20855;SDS011;63058;49.424;8.420;2024-02-28T01:20:55;25.10;;;18.40;;
20855;SDS011;63058;49.424;8.420;2024-02-28T01:23:21;24.00;;;18.53;;
20855;SDS011;63058;49.424;8.420;2024-02-28T01:25:47;24.63;;;18.70;;
20855;SDS011;63058;49.424;8.420;2024-02-28T01:28:12;21.90;;;17.33;;
20855;SDS011;63058;49.424;8.420;2024-02-28T01:30:38;24.77;;;18.53;;
20855;SDS011;63058;49.424;8.420;2024-02-28T01:33:03;26.27;;;19.83;;
20855;SDS011;63058;49.424;8.420;2024-02-28T01:35:29;27.07;;;20.87;;
20855;SDS011;63058;49.424;8.420;2024-02-28T01:37:54;28.30;;;21.53;;
20855;SDS011;63058;49.424;8.420;2024-02-28T01:40:20;28.33;;;21.03;;
20855;SDS011;63058;49.424;8.420;2024-02-28T01:42:46;28.17;;;20.97;;
20855;SDS011;63058;49.424;8.420;2024-02-28T01:45:12;25.70;;;19.70;;
20855;SDS011;63058;49.424;8.420;2024-02-28T01:47:57;29.53;;;21.17;;
20855;SDS011;63058;49.424;8.420;2024-02-28T01:50:23;27.07;;;20.30;;
20855;SDS011;63058;49.424;8.420;2024-02-28T01:52:48;27.50;;;19.70;;
20855;SDS011;63058;49.424;8.420;2024-02-28T01:55:14;28.27;;;21.30;;
20855;SDS011;63058;49.424;8.420;2024-02-28T01:57:40;29.27;;;21.13;;
20855;SDS011;63058;49.424;8.420;2024-02-28T02:00:06;28.53;;;21.73;;
20855;SDS011;63058;49.424;8.420;2024-02-28T02:02:35;33.30;;;23.27;;
20855;SDS011;63058;49.424;8.420;2024-02-28T02:05:00;31.03;;;23.67;;
20855;SDS011;63058;49.424;8.420;2024-02-28T02:07:26;32.00;;;23.03;;
20855;SDS011;63058;49.424;8.420;2024-02-28T02:09:52;33.57;;;25.30;;
20855;SDS011;63058;49.424;8.420;2024-02-28T02:12:18;30.27;;;22.03;;
20855;SDS011;63058;49.424;8.420;2024-02-28T02:14:47;29.93;;;22.13;;
20855;SDS011;63058;49.424;8.420;2024-02-28T02:17:15;31.00;;;23.33;;
20855;SDS011;63058;49.424;8.420;2024-02-28T02:19:41;30.30;;;21.87;;
20855;SDS011;63058;49.424;8.420;2024-02-28T02:22:07;29.17;;;22.37;;
20855;SDS011;63058;49.424;8.420;2024-02-28T02:24:34;29.67;;;21.70;;
20855;SDS011;63058;49.424;8.420;2024-02-28T02:27:00;29.83;;;22.07;;
20855;SDS011;63058;49.424;8.420;2024-02-28T02:29:26;31.43;;;22.43;;
20855;SDS011;63058;49.424;8.420;2024-02-28T02:31:53;31.73;;;22.60;;
20855;SDS011;63058;49.424;8.420;2024-02-28T02:34:19;32.90;;;24.07;;
20855;SDS011;63058;49.424;8.420;2024-02-28T02:36:44;33.57;;;23.83;;
20855;SDS011;63058;49.424;8.420;2024-02-28T02:39:10;33.33;;;23.87;;
20855;SDS011;63058;49.424;8.420;2024-02-28T02:41:35;31.90;;;22.83;;
20855;SDS011;63058;49.424;8.420;2024-02-28T02:44:01;31.37;;;22.77;;
20855;SDS011;63058;49.424;8.420;2024-02-28T02:46:26;30.90;;;22.37;;
20855;SDS011;63058;49.424;8.420;2024-02-28T02:48:52;32.73;;;24.03;;
20855;SDS011;63058;49.424;8.420;2024-02-28T02:51:20;31.90;;;23.07;;
20855;SDS011;63058;49.424;8.420;2024-02-28T02:53:46;31.63;;;22.87;;
20855;SDS011;63058;49.424;8.420;2024-02-28T02:56:11;34.20;;;24.17;;
20855;SDS011;63058;49.424;8.420;2024-02-28T02:58:37;35.03;;;25.27;;
20855;SDS011;63058;49.424;8.420;2024-02-28T03:01:03;34.70;;;25.77;;
20855;SDS011;63058;49.424;8.420;2024-02-28T03:03:28;31.83;;;24.20;;
20855;SDS011;63058;49.424;8.420;2024-02-28T03:05:54;32.70;;;22.90;;
20855;SDS011;63058;49.424;8.420;2024-02-28T03:08:19;31.93;;;23.00;;
20855;SDS011;63058;49.424;8.420;2024-02-28T03:10:45;29.40;;;21.37;;
20855;SDS011;63058;49.424;8.420;2024-02-28T03:13:10;30.30;;;21.80;;
20855;SDS011;63058;49.424;8.420;2024-02-28T03:15:36;34.90;;;25.13;;
20855;SDS011;63058;49.424;8.420;2024-02-28T03:18:01;36.20;;;24.83;;
20855;SDS011;63058;49.424;8.420;2024-02-28T03:20:27;34.60;;;24.40;;
20855;SDS011;63058;49.424;8.420;2024-02-28T03:22:52;37.87;;;25.93;;
20855;SDS011;63058;49.424;8.420;2024-02-28T03:25:18;35.37;;;25.50;;
20855;SDS011;63058;49.424;8.420;2024-02-28T03:27:44;37.20;;;26.77;;
20855;SDS011;63058;49.424;8.420;2024-02-28T03:30:09;37.30;;;26.13;;
20855;SDS011;63058;49.424;8.420;2024-02-28T03:32:35;32.50;;;23.13;;
20855;SDS011;63058;49.424;8.420;2024-02-28T03:35:01;36.27;;;24.50;;
20855;SDS011;63058;49.424;8.420;2024-02-28T03:37:26;33.10;;;23.53;;
20855;SDS011;63058;49.424;8.420;2024-02-28T03:39:52;32.60;;;24.17;;
20855;SDS011;63058;49.424;8.420;2024-02-28T03:42:17;33.90;;;24.77;;
20855;SDS011;63058;49.424;8.420;2024-02-28T03:44:43;30.43;;;21.43;;
20855;SDS011;63058;49.424;8.420;2024-02-28T03:47:09;33.13;;;21.37;;
20855;SDS011;63058;49.424;8.420;2024-02-28T03:49:34;31.20;;;22.07;;
20855;SDS011;63058;49.424;8.420;2024-02-28T03:52:00;33.67;;;23.00;;
20855;SDS011;63058;49.424;8.420;2024-02-28T03:54:26;32.40;;;23.97;;
20855;SDS011;63058;49.424;8.420;2024-02-28T03:56:52;31.13;;;22.30;;
20855;SDS011;63058;49.424;8.420;2024-02-28T03:59:17;33.50;;;22.77;;
20855;SDS011;63058;49.424;8.420;2024-02-28T04:01:43;31.93;;;22.77;;
20855;SDS011;63058;49.424;8.420;2024-02-28T04:04:09;33.43;;;23.10;;
20855;SDS011;63058;49.424;8.420;2024-02-28T04:06:34;33.17;;;23.43;;
20855;SDS011;63058;49.424;8.420;2024-02-28T04:09:00;32.40;;;22.97;;
20855;SDS011;63058;49.424;8.420;2024-02-28T04:11:26;34.27;;;24.07;;
20855;SDS011;63058;49.424;8.420;2024-02-28T04:13:51;34.53;;;24.67;;
20855;SDS011;63058;49.424;8.420;2024-02-28T04:16:17;35.37;;;25.07;;
20855;SDS011;63058;49.424;8.420;2024-02-28T04:18:42;38.13;;;25.17;;
20855;SDS011;63058;49.424;8.420;2024-02-28T04:21:08;33.60;;;23.47;;
20855;SDS011;63058;49.424;8.420;2024-02-28T04:23:34;32.90;;;22.57;;
20855;SDS011;63058;49.424;8.420;2024-02-28T04:25:59;31.17;;;21.83;;
20855;SDS011;63058;49.424;8.420;2024-02-28T04:28:25;31.43;;;22.83;;
20855;SDS011;63058;49.424;8.420;2024-02-28T04:30:50;31.97;;;22.87;;
20855;SDS011;63058;49.424;8.420;2024-02-28T04:33:16;28.77;;;20.70;;
20855;SDS011;63058;49.424;8.420;2024-02-28T04:35:41;30.33;;;22.30;;
20855;SDS011;63058;49.424;8.420;2024-02-28T04:38:07;33.17;;;23.07;;
20855;SDS011;63058;49.424;8.420;2024-02-28T04:40:33;29.83;;;21.47;;
20855;SDS011;63058;49.424;8.420;2024-02-28T04:42:59;32.43;;;22.93;;
20855;SDS011;63058;49.424;8.420;2024-02-28T04:45:24;32.90;;;22.37;;
20855;SDS011;63058;49.424;8.420;2024-02-28T04:47:50;32.53;;;22.93;;
20855;SDS011;63058;49.424;8.420;2024-02-28T04:50:17;29.07;;;21.77;;
20855;SDS011;63058;49.424;8.420;2024-02-28T04:52:43;32.60;;;23.10;;
20855;SDS011;63058;49.424;8.420;2024-02-28T04:55:08;31.23;;;22.43;;
20855;SDS011;63058;49.424;8.420;2024-02-28T04:57:34;32.80;;;23.13;;
20855;SDS011;63058;49.424;8.420;2024-02-28T04:59:59;32.00;;;23.03;;
20855;SDS011;63058;49.424;8.420;2024-02-28T05:02:25;33.23;;;22.80;;
20855;SDS011;63058;49.424;8.420;2024-02-28T05:04:51;33.27;;;23.37;;
20855;SDS011;63058;49.424;8.420;2024-02-28T05:07:16;34.47;;;23.60;;
20855;SDS011;63058;49.424;8.420;2024-02-28T05:09:42;32.27;;;22.60;;
20855;SDS011;63058;49.424;8.420;2024-02-28T05:12:08;33.30;;;23.17;;
20855;SDS011;63058;49.424;8.420;2024-02-28T05:14:33;34.43;;;23.27;;
20855;SDS011;63058;49.424;8.420;2024-02-28T05:16:59;34.43;;;24.07;;
20855;SDS011;63058;49.424;8.420;2024-02-28T05:19:24;34.13;;;24.03;;
20855;SDS011;63058;49.424;8.420;2024-02-28T05:21:50;35.17;;;24.67;;
20855;SDS011;63058;49.424;8.420;2024-02-28T05:24:15;36.97;;;25.40;;
20855;SDS011;63058;49.424;8.420;2024-02-28T05:26:41;40.67;;;27.17;;
20855;SDS011;63058;49.424;8.420;2024-02-28T05:29:07;39.70;;;27.40;;
20855;SDS011;63058;49.424;8.420;2024-02-28T05:31:33;42.83;;;28.20;;
20855;SDS011;63058;49.424;8.420;2024-02-28T05:33:59;43.50;;;29.40;;
20855;SDS011;63058;49.424;8.420;2024-02-28T05:36:26;40.93;;;28.47;;
20855;SDS011;63058;49.424;8.420;2024-02-28T05:38:54;40.63;;;28.27;;
20855;SDS011;63058;49.424;8.420;2024-02-28T05:41:20;38.30;;;26.20;;
20855;SDS011;63058;49.424;8.420;2024-02-28T05:43:47;42.23;;;28.97;;
20855;SDS011;63058;49.424;8.420;2024-02-28T05:46:13;42.37;;;27.83;;
20855;SDS011;63058;49.424;8.420;2024-02-28T05:48:44;36.23;;;25.87;;
20855;SDS011;63058;49.424;8.420;2024-02-28T05:51:10;35.27;;;24.90;;
20855;SDS011;63058;49.424;8.420;2024-02-28T05:53:36;38.20;;;25.50;;
20855;SDS011;63058;49.424;8.420;2024-02-28T05:56:03;40.67;;;26.87;;
20855;SDS011;63058;49.424;8.420;2024-02-28T05:58:42;36.20;;;25.53;;
20855;SDS011;63058;49.424;8.420;2024-02-28T06:01:09;36.03;;;25.00;;
20855;SDS011;63058;49.424;8.420;2024-02-28T06:03:35;36.63;;;25.30;;
20855;SDS011;63058;49.424;8.420;2024-02-28T06:06:04;37.23;;;25.53;;
20855;SDS011;63058;49.424;8.420;2024-02-28T06:08:33;38.43;;;26.90;;
20855;SDS011;63058;49.424;8.420;2024-02-28T06:11:00;39.67;;;26.93;;
20855;SDS011;63058;49.424;8.420;2024-02-28T06:13:27;36.50;;;25.23;;
20855;SDS011;63058;49.424;8.420;2024-02-28T06:15:53;33.63;;;23.30;;
20855;SDS011;63058;49.424;8.420;2024-02-28T06:18:18;32.63;;;23.97;;
20855;SDS011;63058;49.424;8.420;2024-02-28T06:20:44;38.30;;;25.37;;
20855;SDS011;63058;49.424;8.420;2024-02-28T06:23:09;37.27;;;26.50;;
20855;SDS011;63058;49.424;8.420;2024-02-28T06:25:35;35.67;;;24.40;;
20855;SDS011;63058;49.424;8.420;2024-02-28T06:28:01;35.93;;;24.40;;
20855;SDS011;63058;49.424;8.420;2024-02-28T06:30:28;37.37;;;25.33;;
20855;SDS011;63058;49.424;8.420;2024-02-28T06:32:53;32.93;;;22.93;;
20855;SDS011;63058;49.424;8.420;2024-02-28T06:35:19;34.50;;;23.77;;
20855;SDS011;63058;49.424;8.420;2024-02-28T06:37:44;35.90;;;24.93;;
20855;SDS011;63058;49.424;8.420;2024-02-28T06:40:15;35.60;;;25.60;;
20855;SDS011;63058;49.424;8.420;2024-02-28T06:42:41;38.47;;;25.80;;
20855;SDS011;63058;49.424;8.420;2024-02-28T06:45:06;33.43;;;23.40;;
20855;SDS011;63058;49.424;8.420;2024-02-28T06:47:33;34.03;;;23.57;;
20855;SDS011;63058;49.424;8.420;2024-02-28T06:49:59;34.13;;;24.07;;
20855;SDS011;63058;49.424;8.420;2024-02-28T06:52:25;35.67;;;24.10;;
20855;SDS011;63058;49.424;8.420;2024-02-28T06:54:50;35.90;;;24.20;;
20855;SDS011;63058;49.424;8.420;2024-02-28T06:57:16;39.13;;;25.07;;
20855;SDS011;63058;49.424;8.420;2024-02-28T06:59:42;37.33;;;25.40;;
20855;SDS011;63058;49.424;8.420;2024-02-28T07:02:07;37.37;;;25.87;;
20855;SDS011;63058;49.424;8.420;2024-02-28T07:04:33;37.03;;;26.03;;
20855;SDS011;63058;49.424;8.420;2024-02-28T07:06:58;38.97;;;26.23;;
20855;SDS011;63058;49.424;8.420;2024-02-28T07:09:24;40.43;;;27.20;;
20855;SDS011;63058;49.424;8.420;2024-02-28T07:11:56;40.60;;;26.70;;
20855;SDS011;63058;49.424;8.420;2024-02-28T07:14:21;44.33;;;28.17;;
20855;SDS011;63058;49.424;8.420;2024-02-28T07:16:47;44.47;;;29.57;;
20855;SDS011;63058;49.424;8.420;2024-02-28T07:19:12;45.83;;;28.20;;
20855;SDS011;63058;49.424;8.420;2024-02-28T07:21:38;45.30;;;28.57;;
20855;SDS011;63058;49.424;8.420;2024-02-28T07:24:03;46.43;;;29.83;;
20855;SDS011;63058;49.424;8.420;2024-02-28T07:26:30;46.23;;;30.30;;
20855;SDS011;63058;49.424;8.420;2024-02-28T07:28:56;47.80;;;31.77;;
20855;SDS011;63058;49.424;8.420;2024-02-28T07:31:22;47.70;;;30.10;;
20855;SDS011;63058;49.424;8.420;2024-02-28T07:33:47;43.03;;;28.20;;
20855;SDS011;63058;49.424;8.420;2024-02-28T07:36:13;41.27;;;28.67;;
20855;SDS011;63058;49.424;8.420;2024-02-28T07:38:41;43.80;;;28.70;;
20855;SDS011;63058;49.424;8.420;2024-02-28T07:41:07;39.53;;;27.30;;
20855;SDS011;63058;49.424;8.420;2024-02-28T07:43:33;41.43;;;27.60;;
20855;SDS011;63058;49.424;8.420;2024-02-28T07:46:06;37.63;;;25.90;;
20855;SDS011;63058;49.424;8.420;2024-02-28T07:48:36;45.20;;;28.13;;
20855;SDS011;63058;49.424;8.420;2024-02-28T07:51:05;43.53;;;28.70;;
20855;SDS011;63058;49.424;8.420;2024-02-28T07:53:31;46.60;;;30.77;;
20855;SDS011;63058;49.424;8.420;2024-02-28T07:55:57;43.53;;;29.47;;
20855;SDS011;63058;49.424;8.420;2024-02-28T07:58:22;38.83;;;26.37;;
20855;SDS011;63058;49.424;8.420;2024-02-28T08:00:48;42.23;;;29.23;;
20855;SDS011;63058;49.424;8.420;2024-02-28T08:03:14;43.28;;;30.05;;
20855;SDS011;63058;49.424;8.420;2024-02-28T08:05:41;39.27;;;27.10;;
20855;SDS011;63058;49.424;8.420;2024-02-28T08:08:08;45.37;;;31.70;;
20855;SDS011;63058;49.424;8.420;2024-02-28T08:10:34;48.97;;;33.13;;
20855;SDS011;63058;49.424;8.420;2024-02-28T08:13:00;44.20;;;29.97;;
20855;SDS011;63058;49.424;8.420;2024-02-28T08:15:26;45.60;;;30.70;;
20855;SDS011;63058;49.424;8.420;2024-02-28T08:17:52;40.97;;;28.00;;
20855;SDS011;63058;49.424;8.420;2024-02-28T08:20:18;40.00;;;27.83;;
20855;SDS011;63058;49.424;8.420;2024-02-28T08:22:44;45.55;;;31.20;;
20855;SDS011;63058;49.424;8.420;2024-02-28T08:25:11;41.23;;;27.77;;
20855;SDS011;63058;49.424;8.420;2024-02-28T08:27:37;43.42;;;31.23;;
20855;SDS011;63058;49.424;8.420;2024-02-28T08:30:04;44.70;;;30.23;;
20855;SDS011;63058;49.424;8.420;2024-02-28T08:32:33;43.22;;;30.15;;
20855;SDS011;63058;49.424;8.420;2024-02-28T08:34:58;44.93;;;30.20;;
20855;SDS011;63058;49.424;8.420;2024-02-28T08:37:24;35.15;;;25.00;;
20855;SDS011;63058;49.424;8.420;2024-02-28T08:39:52;35.72;;;25.83;;
20855;SDS011;63058;49.424;8.420;2024-02-28T08:42:19;41.50;;;26.80;;
20855;SDS011;63058;49.424;8.420;2024-02-28T08:44:45;42.67;;;29.67;;
20855;SDS011;63058;49.424;8.420;2024-02-28T08:47:13;42.73;;;27.73;;
20855;SDS011;63058;49.424;8.420;2024-02-28T08:49:38;35.25;;;24.40;;
20855;SDS011;63058;49.424;8.420;2024-02-28T08:52:04;47.47;;;32.08;;
20855;SDS011;63058;49.424;8.420;2024-02-28T08:54:30;41.85;;;28.70;;
20855;SDS011;63058;49.424;8.420;2024-02-28T08:56:56;40.80;;;27.67;;
20855;SDS011;63058;49.424;8.420;2024-02-28T08:59:21;38.97;;;26.95;;
20855;SDS011;63058;49.424;8.420;2024-02-28T09:01:47;37.53;;;26.20;;
20855;SDS011;63058;49.424;8.420;2024-02-28T09:04:13;34.47;;;23.42;;
20855;SDS011;63058;49.424;8.420;2024-02-28T09:06:39;35.20;;;25.17;;
20855;SDS011;63058;49.424;8.420;2024-02-28T09:09:05;37.35;;;25.08;;
20855;SDS011;63058;49.424;8.420;2024-02-28T09:11:30;39.08;;;27.60;;
20855;SDS011;63058;49.424;8.420;2024-02-28T09:13:56;38.22;;;25.25;;
20855;SDS011;63058;49.424;8.420;2024-02-28T09:16:21;37.85;;;26.98;;
20855;SDS011;63058;49.424;8.420;2024-02-28T09:18:47;39.70;;;27.67;;
20855;SDS011;63058;49.424;8.420;2024-02-28T09:21:12;38.35;;;26.55;;
20855;SDS011;63058;49.424;8.420;2024-02-28T09:23:40;36.00;;;24.77;;
20855;SDS011;63058;49.424;8.420;2024-02-28T09:26:06;32.90;;;23.38;;
20855;SDS011;63058;49.424;8.420;2024-02-28T09:28:31;30.67;;;21.30;;
20855;SDS011;63058;49.424;8.420;2024-02-28T09:30:57;31.92;;;22.40;;
20855;SDS011;63058;49.424;8.420;2024-02-28T09:33:23;30.30;;;22.02;;
20855;SDS011;63058;49.424;8.420;2024-02-28T09:35:48;31.20;;;22.77;;
20855;SDS011;63058;49.424;8.420;2024-02-28T09:38:14;31.17;;;22.13;;
20855;SDS011;63058;49.424;8.420;2024-02-28T09:40:39;33.53;;;22.75;;
20855;SDS011;63058;49.424;8.420;2024-02-28T09:43:05;34.72;;;24.02;;
20855;SDS011;63058;49.424;8.420;2024-02-28T09:45:36;44.45;;;29.48;;
20855;SDS011;63058;49.424;8.420;2024-02-28T09:48:02;43.83;;;29.75;;
20855;SDS011;63058;49.424;8.420;2024-02-28T09:50:29;40.20;;;27.02;;
20855;SDS011;63058;49.424;8.420;2024-02-28T09:52:55;34.60;;;23.48;;
20855;SDS011;63058;49.424;8.420;2024-02-28T09:55:21;45.70;;;29.33;;
20855;SDS011;63058;49.424;8.420;2024-02-28T09:57:50;39.08;;;25.77;;
20855;SDS011;63058;49.424;8.420;2024-02-28T10:00:18;39.08;;;28.10;;
20855;SDS011;63058;49.424;8.420;2024-02-28T10:02:45;38.65;;;26.75;;
20855;SDS011;63058;49.424;8.420;2024-02-28T10:05:13;38.33;;;26.02;;
20855;SDS011;63058;49.424;8.420;2024-02-28T10:07:39;34.28;;;24.83;;
20855;SDS011;63058;49.424;8.420;2024-02-28T10:10:05;31.83;;;23.15;;
20855;SDS011;63058;49.424;8.420;2024-02-28T10:12:33;34.50;;;23.75;;
20855;SDS011;63058;49.424;8.420;2024-02-28T10:14:59;36.92;;;24.08;;
20855;SDS011;63058;49.424;8.420;2024-02-28T10:17:25;42.10;;;29.25;;
20855;SDS011;63058;49.424;8.420;2024-02-28T10:19:51;37.58;;;25.88;;
20855;SDS011;63058;49.424;8.420;2024-02-28T10:22:17;35.63;;;25.10;;
20855;SDS011;63058;49.424;8.420;2024-02-28T10:24:42;33.78;;;24.45;;
20855;SDS011;63058;49.424;8.420;2024-02-28T10:27:08;35.38;;;24.65;;
20855;SDS011;63058;49.424;8.420;2024-02-28T10:29:34;40.10;;;28.05;;
20855;SDS011;63058;49.424;8.420;2024-02-28T10:31:59;41.35;;;27.67;;
20855;SDS011;63058;49.424;8.420;2024-02-28T10:34:25;36.88;;;24.25;;
20855;SDS011;63058;49.424;8.420;2024-02-28T10:36:51;33.00;;;22.25;;
20855;SDS011;63058;49.424;8.420;2024-02-28T10:39:16;35.53;;;25.33;;
20855;SDS011;63058;49.424;8.420;2024-02-28T10:41:43;37.60;;;24.58;;
20855;SDS011;63058;49.424;8.420;2024-02-28T10:44:11;33.65;;;23.50;;
20855;SDS011;63058;49.424;8.420;2024-02-28T10:46:38;32.50;;;22.55;;
20855;SDS011;63058;49.424;8.420;2024-02-28T10:49:04;26.65;;;19.42;;
20855;SDS011;63058;49.424;8.420;2024-02-28T10:51:30;25.40;;;18.15;;
20855;SDS011;63058;49.424;8.420;2024-02-28T10:54:10;28.92;;;20.15;;
20855;SDS011;63058;49.424;8.420;2024-02-28T10:56:36;29.25;;;21.15;;
20855;SDS011;63058;49.424;8.420;2024-02-28T10:59:03;24.90;;;18.67;;
20855;SDS011;63058;49.424;8.420;2024-02-28T11:01:33;22.60;;;16.83;;
20855;SDS011;63058;49.424;8.420;2024-02-28T11:04:03;24.00;;;18.42;;
20855;SDS011;63058;49.424;8.420;2024-02-28T11:06:29;26.85;;;18.05;;
20855;SDS011;63058;49.424;8.420;2024-02-28T11:08:55;27.08;;;18.98;;
20855;SDS011;63058;49.424;8.420;2024-02-28T11:11:23;26.48;;;19.52;;
20855;SDS011;63058;49.424;8.420;2024-02-28T11:13:53;27.05;;;20.15;;
20855;SDS011;63058;49.424;8.420;2024-02-28T11:16:32;27.13;;;18.58;;
20855;SDS011;63058;49.424;8.420;2024-02-28T11:18:58;27.35;;;21.05;;
20855;SDS011;63058;49.424;8.420;2024-02-28T11:21:26;30.65;;;22.30;;
20855;SDS011;63058;49.424;8.420;2024-02-28T11:24:01;30.73;;;22.77;;
20855;SDS011;63058;49.424;8.420;2024-02-28T11:26:28;29.40;;;22.20;;
20855;SDS011;63058;49.424;8.420;2024-02-28T11:28:57;31.50;;;20.27;;
20855;SDS011;63058;49.424;8.420;2024-02-28T11:31:22;24.75;;;19.75;;
20855;SDS011;63058;49.424;8.420;2024-02-28T11:33:48;27.20;;;21.67;;
20855;SDS011;63058;49.424;8.420;2024-02-28T11:36:14;27.95;;;21.27;;
20855;SDS011;63058;49.424;8.420;2024-02-28T11:38:40;25.60;;;19.83;;
20855;SDS011;63058;49.424;8.420;2024-02-28T11:41:06;20.70;;;16.58;;
20855;SDS011;63058;49.424;8.420;2024-02-28T11:43:32;22.20;;;16.88;;
20855;SDS011;63058;49.424;8.420;2024-02-28T11:45:59;19.33;;;15.63;;
20855;SDS011;63058;49.424;8.420;2024-02-28T11:48:25;19.38;;;15.38;;
20855;SDS011;63058;49.424;8.420;2024-02-28T11:50:52;18.77;;;14.70;;
20855;SDS011;63058;49.424;8.420;2024-02-28T11:53:18;19.52;;;15.38;;
20855;SDS011;63058;49.424;8.420;2024-02-28T11:55:45;18.75;;;15.25;;
20855;SDS011;63058;49.424;8.420;2024-02-28T11:58:12;20.15;;;17.05;;
20855;SDS011;63058;49.424;8.420;2024-02-28T12:00:49;19.65;;;15.27;;
20855;SDS011;63058;49.424;8.420;2024-02-28T12:03:22;21.92;;;16.98;;
20855;SDS011;63058;49.424;8.420;2024-02-28T12:05:48;18.67;;;15.68;;
20855;SDS011;63058;49.424;8.420;2024-02-28T12:08:14;19.70;;;15.18;;
20855;SDS011;63058;49.424;8.420;2024-02-28T12:10:42;22.90;;;18.00;;
20855;SDS011;63058;49.424;8.420;2024-02-28T12:13:07;19.27;;;15.95;;
20855;SDS011;63058;49.424;8.420;2024-02-28T12:15:34;18.77;;;15.20;;
20855;SDS011;63058;49.424;8.420;2024-02-28T12:17:59;21.10;;;15.90;;
20855;SDS011;63058;49.424;8.420;2024-02-28T12:20:25;20.40;;;16.20;;
20855;SDS011;63058;49.424;8.420;2024-02-28T12:22:51;21.17;;;15.48;;
20855;SDS011;63058;49.424;8.420;2024-02-28T12:25:16;18.67;;;15.50;;
20855;SDS011;63058;49.424;8.420;2024-02-28T12:27:42;19.13;;;15.05;;
20855;SDS011;63058;49.424;8.420;2024-02-28T12:30:08;19.17;;;15.65;;
20855;SDS011;63058;49.424;8.420;2024-02-28T12:32:34;17.95;;;14.95;;
20855;SDS011;63058;49.424;8.420;2024-02-28T12:34:59;16.80;;;13.02;;
20855;SDS011;63058;49.424;8.420;2024-02-28T12:37:25;15.88;;;13.60;;
20855;SDS011;63058;49.424;8.420;2024-02-28T12:39:51;16.90;;;13.77;;
20855;SDS011;63058;49.424;8.420;2024-02-28T12:42:17;18.10;;;12.57;;
20855;SDS011;63058;49.424;8.420;2024-02-28T12:44:43;18.13;;;12.70;;
20855;SDS011;63058;49.424;8.420;2024-02-28T12:47:12;19.90;;;15.23;;
20855;SDS011;63058;49.424;8.420;2024-02-28T12:49:38;17.88;;;13.88;;
20855;SDS011;63058;49.424;8.420;2024-02-28T12:52:03;18.48;;;14.63;;
20855;SDS011;63058;49.424;8.420;2024-02-28T12:54:29;16.17;;;13.60;;
20855;SDS011;63058;49.424;8.420;2024-02-28T12:56:55;18.52;;;14.73;;
20855;SDS011;63058;49.424;8.420;2024-02-28T12:59:21;14.68;;;12.65;;
20855;SDS011;63058;49.424;8.420;2024-02-28T13:01:47;14.98;;;13.30;;
20855;SDS011;63058;49.424;8.420;2024-02-28T13:04:15;15.50;;;13.75;;
20855;SDS011;63058;49.424;8.420;2024-02-28T13:06:41;18.17;;;14.88;;
20855;SDS011;63058;49.424;8.420;2024-02-28T13:09:06;18.00;;;15.02;;
20855;SDS011;63058;49.424;8.420;2024-02-28T13:11:37;15.60;;;13.60;;
20855;SDS011;63058;49.424;8.420;2024-02-28T13:14:03;17.58;;;14.73;;
20855;SDS011;63058;49.424;8.420;2024-02-28T13:16:29;15.32;;;13.20;;
20855;SDS011;63058;49.424;8.420;2024-02-28T13:18:55;18.85;;;13.90;;
20855;SDS011;63058;49.424;8.420;2024-02-28T13:21:21;16.52;;;13.27;;
20855;SDS011;63058;49.424;8.420;2024-02-28T13:23:46;15.73;;;12.52;;
20855;SDS011;63058;49.424;8.420;2024-02-28T13:26:12;19.23;;;14.35;;
20855;SDS011;63058;49.424;8.420;2024-02-28T13:28:44;16.40;;;13.93;;
20855;SDS011;63058;49.424;8.420;2024-02-28T13:31:09;13.75;;;12.15;;
20855;SDS011;63058;49.424;8.420;2024-02-28T13:33:35;15.27;;;12.98;;
20855;SDS011;63058;49.424;8.420;2024-02-28T13:36:02;17.52;;;14.38;;
20855;SDS011;63058;49.424;8.420;2024-02-28T13:38:28;15.32;;;12.95;;
20855;SDS011;63058;49.424;8.420;2024-02-28T13:40:54;13.98;;;12.50;;
20855;SDS011;63058;49.424;8.420;2024-02-28T13:43:19;16.17;;;12.82;;
20855;SDS011;63058;49.424;8.420;2024-02-28T13:45:49;15.77;;;13.23;;
20855;SDS011;63058;49.424;8.420;2024-02-28T13:50:43;13.63;;;11.65;;
20855;SDS011;63058;49.424;8.420;2024-02-28T13:53:10;13.40;;;11.48;;
20855;SDS011;63058;49.424;8.420;2024-02-28T13:55:36;12.35;;;11.00;;
20855;SDS011;63058;49.424;8.420;2024-02-28T13:58:01;15.20;;;11.82;;
20855;SDS011;63058;49.424;8.420;2024-02-28T14:00:27;15.82;;;13.95;;
20855;SDS011;63058;49.424;8.420;2024-02-28T14:02:53;13.85;;;11.98;;
20855;SDS011;63058;49.424;8.420;2024-02-28T14:05:18;15.05;;;12.25;;
20855;SDS011;63058;49.424;8.420;2024-02-28T14:07:44;14.02;;;11.45;;
20855;SDS011;63058;49.424;8.420;2024-02-28T14:10:09;13.50;;;11.43;;
20855;SDS011;63058;49.424;8.420;2024-02-28T14:12:36;12.43;;;11.13;;
20855;SDS011;63058;49.424;8.420;2024-02-28T14:15:02;11.85;;;10.43;;
20855;SDS011;63058;49.424;8.420;2024-02-28T14:17:29;12.32;;;10.38;;